createdAt,value
2023-03-21T00:01:06.523Z,11.90
2023-03-21T00:03:38.180Z,13.87
2023-03-21T00:06:07.584Z,11.80
2023-03-21T00:08:35.681Z,15.80
2023-03-21T00:11:06.243Z,12.17
2023-03-21T00:13:38.510Z,12.70
2023-03-21T00:18:58.478Z,12.63
2023-03-21T00:22:05.488Z,12.20
2023-03-21T00:24:22.189Z,13.63
2023-03-21T00:26:50.787Z,13.30
2023-03-21T00:29:19.173Z,13.37
2023-03-21T00:31:48.710Z,16.07
2023-03-21T00:34:22.496Z,17.53
2023-03-21T00:37:01.798Z,12.70
2023-03-21T00:39:30.134Z,13.83
2023-03-21T00:41:58.392Z,16.03
2023-03-21T00:44:26.518Z,14.47
2023-03-21T00:47:06.577Z,18.37
2023-03-21T00:49:38.169Z,18.80
2023-03-21T00:52:18.326Z,18.90
2023-03-21T00:54:50.638Z,17.60
2023-03-21T00:57:20.245Z,14.67
2023-03-21T00:59:48.439Z,15.73
2023-03-21T01:02:23.225Z,20.30
2023-03-21T01:04:51.616Z,14.87
2023-03-21T01:07:19.641Z,15.70
2023-03-21T01:09:47.706Z,13.70
2023-03-21T01:12:15.801Z,17.57
2023-03-21T01:14:43.773Z,14.03
2023-03-21T01:17:11.892Z,17.00
2023-03-21T01:19:51.514Z,14.83
2023-03-21T01:22:20.178Z,14.43
2023-03-21T01:24:55.384Z,13.33
2023-03-21T01:27:26.427Z,13.77
2023-03-21T01:29:54.309Z,14.00
2023-03-21T01:32:22.159Z,16.77
2023-03-21T01:34:51.591Z,15.83
2023-03-21T01:37:19.915Z,14.40
2023-03-21T01:39:47.824Z,18.63
2023-03-21T01:42:16.168Z,15.93
2023-03-21T01:44:54.712Z,13.83
2023-03-21T01:47:22.633Z,19.83
2023-03-21T01:49:55.494Z,12.27
2023-03-21T01:52:36.638Z,13.37
2023-03-21T01:55:11.688Z,16.27
2023-03-21T01:57:58.219Z,13.03
2023-03-21T02:00:33.097Z,12.63
2023-03-21T02:03:13.648Z,13.60
2023-03-21T02:06:00.307Z,14.63
2023-03-21T02:08:38.814Z,14.40
2023-03-21T02:11:08.262Z,13.93
2023-03-21T02:13:37.636Z,15.00
2023-03-21T02:16:14.281Z,18.17
2023-03-21T02:18:50.691Z,16.67
2023-03-21T02:22:03.961Z,14.97
2023-03-21T02:25:06.162Z,16.77
2023-03-21T02:27:46.213Z,12.60
2023-03-21T02:30:51.959Z,19.27
2023-03-21T02:33:42.416Z,17.70
2023-03-21T02:36:19.324Z,14.73
2023-03-21T02:38:57.204Z,13.93
2023-03-21T02:41:40.133Z,14.23
2023-03-21T02:44:16.467Z,19.70
2023-03-21T02:47:02.968Z,17.47
2023-03-21T02:49:40.205Z,19.10
2023-03-21T02:52:18.686Z,16.97
2023-03-21T02:54:57.168Z,15.03
2023-03-21T02:57:31.375Z,18.20
2023-03-21T03:00:16.469Z,18.73
2023-03-21T03:02:45.238Z,16.90
2023-03-21T03:05:21.383Z,18.77
2023-03-21T03:08:10.728Z,17.40
2023-03-21T03:10:57.158Z,17.40
2023-03-21T03:13:38.801Z,16.10
2023-03-21T03:16:17.093Z,17.53
2023-03-21T03:18:52.424Z,14.17
2023-03-21T03:21:26.802Z,15.00
2023-03-21T03:23:58.750Z,19.60
2023-03-21T03:26:34.631Z,17.70
2023-03-21T03:29:06.314Z,20.07
2023-03-21T03:31:38.095Z,22.73
2023-03-21T03:34:10.472Z,24.63
2023-03-21T03:36:42.800Z,15.10
2023-03-21T03:39:12.978Z,15.07
2023-03-21T03:44:35.602Z,15.30
2023-03-21T03:47:07.541Z,16.07
2023-03-21T03:49:42.713Z,17.53
2023-03-21T03:52:17.160Z,21.77
2023-03-21T03:54:47.374Z,18.47
2023-03-21T03:57:17.275Z,13.70
2023-03-21T03:59:46.980Z,17.27
2023-03-21T04:02:17.176Z,15.27
2023-03-21T04:04:45.297Z,14.80
2023-03-21T04:07:13.143Z,17.83
2023-03-21T04:09:44.907Z,14.37
2023-03-21T04:12:13.773Z,17.03
2023-03-21T04:14:46.056Z,14.43
2023-03-21T04:17:16.339Z,21.40
2023-03-21T04:19:45.396Z,13.57
2023-03-21T04:22:13.650Z,15.80
2023-03-21T04:24:42.392Z,16.10
2023-03-21T04:27:10.534Z,16.43
2023-03-21T04:29:38.435Z,14.97
2023-03-21T04:32:16.181Z,19.47
2023-03-21T04:34:50.221Z,18.10
2023-03-21T04:37:19.338Z,10.60
2023-03-21T04:39:47.740Z,14.57
2023-03-21T04:42:16.178Z,16.57
2023-03-21T04:44:44.062Z,22.53
2023-03-21T04:47:15.817Z,19.80
2023-03-21T04:49:43.754Z,15.70
2023-03-21T04:52:11.577Z,22.37
2023-03-21T04:54:39.425Z,20.90
2023-03-21T04:57:08.016Z,21.10
2023-03-21T04:59:36.586Z,22.10
2023-03-21T05:02:04.739Z,18.07
2023-03-21T05:04:33.975Z,19.67
2023-03-21T05:07:02.070Z,20.90
2023-03-21T05:09:29.991Z,17.30
2023-03-21T05:11:58.105Z,16.67
2023-03-21T05:14:28.484Z,16.57
2023-03-21T05:16:57.734Z,23.07
2023-03-21T05:19:34.689Z,20.77
2023-03-21T05:22:06.262Z,22.67
2023-03-21T05:24:34.719Z,24.60
2023-03-21T05:27:03.426Z,17.30
2023-03-21T05:29:32.502Z,19.63
2023-03-21T05:32:02.001Z,21.43
2023-03-21T05:34:30.857Z,25.00
2023-03-21T05:36:58.904Z,19.33
2023-03-21T05:39:28.341Z,20.33
2023-03-21T05:41:56.346Z,22.30
2023-03-21T05:44:24.314Z,24.23
2023-03-21T05:46:52.425Z,24.07
2023-03-21T05:49:22.760Z,22.43
2023-03-21T05:51:51.077Z,25.10
2023-03-21T05:54:18.992Z,18.50
2023-03-21T05:56:48.334Z,24.17
2023-03-21T05:59:16.651Z,22.27
2023-03-21T06:01:44.654Z,24.20
2023-03-21T06:04:12.700Z,23.70
2023-03-21T06:06:40.862Z,25.70
2023-03-21T06:09:08.895Z,27.47
2023-03-21T06:11:39.218Z,24.50
2023-03-21T06:14:08.627Z,20.37
2023-03-21T06:16:36.599Z,23.47
2023-03-21T06:19:04.656Z,27.37
2023-03-21T06:21:32.647Z,26.23
2023-03-21T06:24:00.788Z,19.67
2023-03-21T06:26:28.824Z,23.53
2023-03-21T06:28:56.876Z,28.67
2023-03-21T06:31:26.706Z,19.73
2023-03-21T06:33:54.958Z,24.37
2023-03-21T06:36:22.918Z,23.17
2023-03-21T06:38:51.077Z,24.63
2023-03-21T06:41:19.302Z,26.63
2023-03-21T06:43:48.537Z,25.30
2023-03-21T06:46:16.884Z,22.30
2023-03-21T06:48:46.440Z,21.83
2023-03-21T06:51:15.709Z,25.27
2023-03-21T06:53:44.678Z,22.83
2023-03-21T06:56:14.726Z,19.47
2023-03-21T06:58:43.361Z,21.93
2023-03-21T07:01:11.346Z,22.53
2023-03-21T07:03:39.725Z,20.00
2023-03-21T07:06:12.177Z,21.33
2023-03-21T07:08:41.055Z,19.43
2023-03-21T07:11:10.136Z,22.73
2023-03-21T07:13:38.410Z,28.47
2023-03-21T07:16:07.328Z,23.60
2023-03-21T07:18:35.993Z,22.97
2023-03-21T07:21:04.028Z,26.43
2023-03-21T07:23:34.329Z,19.50
2023-03-21T07:26:02.686Z,21.73
2023-03-21T07:28:31.138Z,22.40
2023-03-21T07:31:02.489Z,23.77
2023-03-21T07:33:31.481Z,21.50
2023-03-21T07:36:00.106Z,22.27
2023-03-21T07:38:30.656Z,21.97
2023-03-21T07:41:00.788Z,18.73
2023-03-21T07:43:28.648Z,24.43
2023-03-21T07:45:58.535Z,20.43
2023-03-21T07:48:26.597Z,23.20
2023-03-21T07:50:54.580Z,19.33
2023-03-21T07:53:22.449Z,26.47
2023-03-21T07:55:52.122Z,16.13
2023-03-21T07:58:21.836Z,21.80
2023-03-21T08:00:49.885Z,16.43
2023-03-21T08:03:17.768Z,20.07
2023-03-21T08:05:46.041Z,19.43
2023-03-21T08:08:14.210Z,20.83
2023-03-21T08:10:43.857Z,25.00
2023-03-21T08:13:12.025Z,19.23
2023-03-21T08:15:42.474Z,17.73
2023-03-21T08:18:11.417Z,20.57
2023-03-21T08:20:39.814Z,19.60
2023-03-21T08:23:07.836Z,18.93
2023-03-21T08:25:36.694Z,16.93
2023-03-21T08:28:05.260Z,21.90
2023-03-21T08:30:33.360Z,17.93
2023-03-21T08:33:02.969Z,25.27
2023-03-21T08:35:31.654Z,22.43
2023-03-21T08:37:59.695Z,21.50
2023-03-21T08:40:27.600Z,18.33
2023-03-21T08:42:56.099Z,17.27
2023-03-21T08:45:25.401Z,19.70
2023-03-21T08:47:53.922Z,17.83
2023-03-21T08:50:26.603Z,19.57
2023-03-21T08:52:54.689Z,16.57
2023-03-21T08:55:22.605Z,17.90
2023-03-21T08:57:50.672Z,18.90
2023-03-21T09:00:20.840Z,24.17
2023-03-21T09:02:51.458Z,19.03
2023-03-21T09:05:19.996Z,18.23
2023-03-21T09:07:50.473Z,19.93
2023-03-21T09:10:22.207Z,17.83
2023-03-21T09:12:52.196Z,17.53
2023-03-21T09:15:22.023Z,24.23
2023-03-21T09:17:53.340Z,18.00
2023-03-21T09:20:26.160Z,17.37
2023-03-21T09:22:56.249Z,15.43
2023-03-21T09:25:24.879Z,15.83
2023-03-21T09:27:53.745Z,18.73
2023-03-21T09:30:25.569Z,16.37
2023-03-21T09:32:55.859Z,15.83
2023-03-21T09:35:24.361Z,18.03
2023-03-21T09:37:52.499Z,17.50
2023-03-21T09:40:31.013Z,17.60
2023-03-21T09:43:07.366Z,17.00
2023-03-21T09:45:42.974Z,13.20
2023-03-21T09:48:20.395Z,13.37
2023-03-21T09:50:48.847Z,16.47
2023-03-21T09:53:21.832Z,16.07
2023-03-21T09:55:51.997Z,13.90
2023-03-21T09:58:27.274Z,15.30
2023-03-21T10:01:02.294Z,13.60
2023-03-21T10:03:35.185Z,15.53
2023-03-21T10:06:08.468Z,13.93
2023-03-21T10:08:38.750Z,13.30
2023-03-21T10:11:14.543Z,13.33
2023-03-21T10:13:47.537Z,14.80
2023-03-21T10:16:19.612Z,16.70
2023-03-21T10:18:49.705Z,15.47
2023-03-21T10:21:47.447Z,13.77
2023-03-21T10:24:13.851Z,16.83
2023-03-21T10:26:44.481Z,13.93
2023-03-21T10:29:15.114Z,16.07
2023-03-21T10:31:44.286Z,18.70
2023-03-21T10:34:18.316Z,13.30
2023-03-21T10:36:46.539Z,16.27
2023-03-21T10:39:25.985Z,19.10
2023-03-21T10:41:55.749Z,15.43
2023-03-21T10:44:31.131Z,13.70
2023-03-21T10:47:04.731Z,15.57
2023-03-21T10:49:40.602Z,17.47
2023-03-21T10:52:19.094Z,14.60
2023-03-21T10:54:48.389Z,13.60
2023-03-21T10:57:22.421Z,12.80
2023-03-21T10:59:54.583Z,15.90
2023-03-21T11:02:27.331Z,15.67
2023-03-21T11:04:56.764Z,13.10
2023-03-21T11:07:31.049Z,14.17
2023-03-21T11:10:00.871Z,13.57
2023-03-21T11:12:37.581Z,10.53
2023-03-21T11:15:30.899Z,16.53
2023-03-21T11:17:59.335Z,11.93
2023-03-21T11:20:30.187Z,8.93
2023-03-21T11:22:58.261Z,12.63
2023-03-21T11:25:33.136Z,14.00
2023-03-21T11:28:07.628Z,11.80
2023-03-21T11:30:35.820Z,9.53
2023-03-21T11:33:07.674Z,10.33
2023-03-21T11:35:38.089Z,8.33
2023-03-21T11:38:07.996Z,11.70
2023-03-21T11:40:39.634Z,10.83
2023-03-21T11:43:28.414Z,9.40
2023-03-21T11:46:01.242Z,9.97
2023-03-21T11:48:30.539Z,10.67
2023-03-21T11:51:03.832Z,10.90
2023-03-21T11:53:40.835Z,14.10
2023-03-21T11:56:24.949Z,9.07
2023-03-21T11:59:08.537Z,10.53
2023-03-21T12:01:43.812Z,9.33
2023-03-21T12:04:42.832Z,9.37
2023-03-21T12:07:26.417Z,9.43
2023-03-21T12:10:03.686Z,8.53
2023-03-21T12:12:39.969Z,11.27
2023-03-21T12:15:18.093Z,9.97
2023-03-21T12:17:54.273Z,10.97
2023-03-21T12:20:44.263Z,10.20
2023-03-21T12:23:42.109Z,7.50
2023-03-21T12:26:20.952Z,9.40
2023-03-21T12:29:01.374Z,11.27
2023-03-21T12:31:40.678Z,11.40
2023-03-21T12:34:23.523Z,12.67
2023-03-21T12:37:05.693Z,9.87
2023-03-21T12:39:36.021Z,9.37
2023-03-21T12:42:43.373Z,10.60
2023-03-21T12:45:18.016Z,10.97
2023-03-21T12:47:53.076Z,10.47
2023-03-21T12:50:25.850Z,8.70
2023-03-21T12:52:57.408Z,8.73
2023-03-21T12:55:28.929Z,9.50
2023-03-21T12:58:03.415Z,10.43
2023-03-21T13:00:37.448Z,10.80
2023-03-21T13:03:13.351Z,7.43
2023-03-21T13:05:46.961Z,7.87
2023-03-21T13:08:19.148Z,8.00
2023-03-21T13:10:47.966Z,8.43
2023-03-21T13:13:23.853Z,8.87
2023-03-21T13:16:08.061Z,8.90
2023-03-21T13:19:12.397Z,6.57
2023-03-21T13:21:51.658Z,9.83
2023-03-21T13:24:27.315Z,6.20
2023-03-21T13:27:02.583Z,7.63
2023-03-21T13:29:33.280Z,4.73
2023-03-21T13:32:10.028Z,7.27
2023-03-21T13:34:42.683Z,8.57
2023-03-21T13:37:18.083Z,5.83
2023-03-21T13:39:47.971Z,4.43
2023-03-21T13:42:25.311Z,6.10
2023-03-21T13:44:59.494Z,7.37
2023-03-21T13:47:42.652Z,6.40
2023-03-21T13:50:27.136Z,7.40
2023-03-21T13:53:22.451Z,7.50
2023-03-21T13:56:18.460Z,6.63
2023-03-21T13:58:53.880Z,5.63
2023-03-21T14:01:28.693Z,6.73
2023-03-21T14:04:03.907Z,6.60
2023-03-21T14:06:39.059Z,6.80
2023-03-21T14:09:08.034Z,5.20
2023-03-21T14:11:41.970Z,7.73
2023-03-21T14:14:12.443Z,6.77
2023-03-21T14:16:42.037Z,9.40
2023-03-21T14:19:12.964Z,6.10
2023-03-21T14:21:50.309Z,9.00
2023-03-21T14:24:19.619Z,5.37
2023-03-21T14:26:50.144Z,6.80
2023-03-21T14:29:26.410Z,5.60
2023-03-21T14:31:56.308Z,6.47
2023-03-21T14:34:26.106Z,6.60
2023-03-21T14:36:58.548Z,6.90
2023-03-21T14:39:31.057Z,6.27
2023-03-21T14:42:05.390Z,5.07
2023-03-21T14:44:53.575Z,7.63
2023-03-21T14:47:25.265Z,10.80
2023-03-21T14:49:53.710Z,7.90
2023-03-21T14:52:25.874Z,8.17
2023-03-21T14:54:55.975Z,5.97
2023-03-21T14:57:26.456Z,5.83
2023-03-21T14:59:58.261Z,6.57
2023-03-21T15:02:29.111Z,6.70
2023-03-21T15:04:59.848Z,8.40
2023-03-21T15:07:32.286Z,6.17
2023-03-21T15:10:03.716Z,5.20
2023-03-21T15:12:32.030Z,7.47
2023-03-21T15:15:01.477Z,6.50
2023-03-21T15:17:30.584Z,6.70
2023-03-21T15:19:58.636Z,7.67
2023-03-21T15:22:33.147Z,7.17
2023-03-21T15:25:03.330Z,4.90
2023-03-21T15:27:34.073Z,7.33
2023-03-21T15:30:02.252Z,4.60
2023-03-21T15:32:30.829Z,6.53
2023-03-21T15:35:07.106Z,9.40
2023-03-21T15:37:38.735Z,7.40
2023-03-21T15:40:19.763Z,5.83
2023-03-21T15:42:47.725Z,6.00
2023-03-21T15:45:21.751Z,7.30
2023-03-21T15:47:56.151Z,9.33
2023-03-21T15:50:30.081Z,7.23
2023-03-21T15:53:02.298Z,12.33
2023-03-21T15:55:36.444Z,7.80
2023-03-21T15:58:07.382Z,9.10
2023-03-21T16:00:40.508Z,8.47
2023-03-21T16:03:17.118Z,8.67
2023-03-21T16:06:07.824Z,9.93
2023-03-21T16:08:43.609Z,8.93
2023-03-21T16:11:19.466Z,6.30
2023-03-21T16:13:47.701Z,6.97
2023-03-21T16:16:19.870Z,6.90
2023-03-21T16:18:48.475Z,8.07
2023-03-21T16:21:18.867Z,7.77
2023-03-21T16:23:49.117Z,7.17
2023-03-21T16:26:20.155Z,7.90
2023-03-21T16:28:48.376Z,9.10
2023-03-21T16:31:18.713Z,10.20
2023-03-21T16:33:47.513Z,8.07
2023-03-21T16:36:18.003Z,10.70
2023-03-21T16:38:49.639Z,8.80
2023-03-21T16:41:18.153Z,13.57
2023-03-21T16:43:46.547Z,5.90
2023-03-21T16:46:15.686Z,7.23
2023-03-21T16:48:44.578Z,6.87
2023-03-21T16:51:16.166Z,6.37
2023-03-21T16:53:44.329Z,8.80
2023-03-21T16:56:18.209Z,9.97
2023-03-21T16:58:46.472Z,8.33
2023-03-21T17:01:19.202Z,8.43
2023-03-21T17:03:48.793Z,6.43
2023-03-21T17:06:18.977Z,8.80
2023-03-21T17:08:47.411Z,10.07
2023-03-21T17:11:20.218Z,8.23
2023-03-21T17:13:48.846Z,8.83
2023-03-21T17:16:18.118Z,10.13
2023-03-21T17:18:49.471Z,8.03
2023-03-21T17:21:19.617Z,8.67
2023-03-21T17:23:48.296Z,9.17
2023-03-21T17:26:21.114Z,5.80
2023-03-21T17:28:49.323Z,7.70
2023-03-21T17:31:18.930Z,6.73
2023-03-21T17:33:47.436Z,6.67
2023-03-21T17:36:17.245Z,6.27
2023-03-21T17:38:46.759Z,7.17
2023-03-21T17:41:18.633Z,7.10
2023-03-21T17:43:46.675Z,10.67
2023-03-21T17:46:16.527Z,8.20
2023-03-21T17:48:46.076Z,9.87
2023-03-21T17:51:16.359Z,7.93
2023-03-21T17:53:45.116Z,6.50
2023-03-21T17:56:16.520Z,7.53
2023-03-21T17:58:47.181Z,6.73
2023-03-21T18:01:15.590Z,7.67
2023-03-21T18:03:43.816Z,10.83
2023-03-21T18:06:17.117Z,13.23
2023-03-21T18:08:46.081Z,12.80
2023-03-21T18:11:15.328Z,11.13
2023-03-21T18:13:46.023Z,10.77
2023-03-21T18:16:17.795Z,8.60
2023-03-21T18:18:46.744Z,8.33
2023-03-21T18:21:19.282Z,7.73
2023-03-21T18:23:48.680Z,9.73
2023-03-21T18:26:18.897Z,10.70
2023-03-21T18:29:30.325Z,7.23
2023-03-21T18:31:38.264Z,7.40
2023-03-21T18:34:06.422Z,6.87
2023-03-21T18:36:34.748Z,9.33
2023-03-21T18:39:03.833Z,9.20
2023-03-21T18:41:32.249Z,9.23
2023-03-21T18:44:09.179Z,8.73
2023-03-21T18:46:47.284Z,9.90
2023-03-21T18:52:03.927Z,11.53
2023-03-21T18:54:32.238Z,12.17
2023-03-21T18:59:49.959Z,12.30
2023-03-21T19:02:17.966Z,14.20
2023-03-21T19:04:46.481Z,9.87
2023-03-21T19:07:14.810Z,11.53
2023-03-21T19:10:01.906Z,11.07
2023-03-21T19:12:31.728Z,11.50
2023-03-21T19:15:01.238Z,10.33
2023-03-21T19:20:17.499Z,10.67
2023-03-21T19:22:46.144Z,8.07
2023-03-21T19:25:16.284Z,8.03
2023-03-21T19:27:46.854Z,13.10
2023-03-21T19:30:19.705Z,10.70
2023-03-21T19:32:48.958Z,10.80
2023-03-21T19:35:17.503Z,9.43
2023-03-21T19:37:46.741Z,9.13
2023-03-21T19:40:16.854Z,9.67
2023-03-21T19:42:47.126Z,10.47
2023-03-21T19:45:16.576Z,11.60
2023-03-21T19:47:44.628Z,12.93
2023-03-21T19:53:01.586Z,12.20
2023-03-21T19:55:29.703Z,12.60
2023-03-21T19:57:57.703Z,16.60
2023-03-21T20:00:27.438Z,9.97
2023-03-21T20:02:55.521Z,15.50
2023-03-21T20:05:25.684Z,13.90
2023-03-21T20:07:55.363Z,11.00
2023-03-21T20:10:23.989Z,13.50
2023-03-21T20:12:52.164Z,11.47
2023-03-21T20:15:21.901Z,13.20
2023-03-21T20:17:52.695Z,15.43
2023-03-21T20:20:21.357Z,12.30
2023-03-21T20:23:10.955Z,13.27
2023-03-21T20:25:41.418Z,12.03
2023-03-21T20:28:16.292Z,17.47
2023-03-21T20:30:53.064Z,13.93
2023-03-21T20:33:22.500Z,13.70
2023-03-21T20:38:40.859Z,14.80
2023-03-21T20:41:08.972Z,12.57
2023-03-21T20:44:28.165Z,11.10
2023-03-21T20:46:24.983Z,13.77
2023-03-21T20:48:54.706Z,13.77
2023-03-21T20:54:11.252Z,12.83
2023-03-21T20:56:39.400Z,11.43
2023-03-21T20:59:18.756Z,13.80
2023-03-21T21:01:52.069Z,12.20
2023-03-21T21:04:22.965Z,11.70
2023-03-21T21:06:53.553Z,14.50
2023-03-21T21:09:21.917Z,10.17
2023-03-21T21:12:06.275Z,15.63
2023-03-21T21:14:36.640Z,11.17
2023-03-21T21:17:23.860Z,10.97
2023-03-21T21:19:54.718Z,11.73
2023-03-21T21:22:22.931Z,12.13
2023-03-21T21:24:51.399Z,8.97
2023-03-21T21:27:20.000Z,8.30
2023-03-21T21:29:50.255Z,11.57
2023-03-21T21:32:19.646Z,15.53
2023-03-21T21:34:48.749Z,11.77
2023-03-21T21:37:18.073Z,10.67
2023-03-21T21:39:46.839Z,11.57
2023-03-21T21:42:15.227Z,13.37
2023-03-21T21:44:44.949Z,14.93
2023-03-21T21:47:13.280Z,12.10
2023-03-21T21:49:41.454Z,12.23
2023-03-21T21:52:13.695Z,10.60
2023-03-21T21:54:45.802Z,10.40
2023-03-21T21:57:14.712Z,9.67
2023-03-21T21:59:42.986Z,7.67
2023-03-21T22:02:13.862Z,11.17
2023-03-21T22:04:42.258Z,9.00
2023-03-21T22:07:14.452Z,10.43
2023-03-21T22:09:44.844Z,9.13
2023-03-21T22:12:12.843Z,13.33
2023-03-21T22:14:40.980Z,13.80
2023-03-21T22:17:09.103Z,10.33
2023-03-21T22:19:39.731Z,10.27
2023-03-21T22:22:08.400Z,12.27
2023-03-21T22:24:37.437Z,13.47
2023-03-21T22:27:06.887Z,15.67
2023-03-21T22:29:34.881Z,13.60
2023-03-21T22:32:02.803Z,9.67
2023-03-21T22:34:31.122Z,10.93
2023-03-21T22:36:59.831Z,10.37
2023-03-21T22:39:28.791Z,12.90
2023-03-21T22:42:00.861Z,7.17
2023-03-21T22:44:34.643Z,9.63
2023-03-21T22:47:03.702Z,8.37
2023-03-21T22:49:32.850Z,9.50
2023-03-21T22:52:01.494Z,7.80
2023-03-21T22:54:29.523Z,8.83
2023-03-21T22:56:58.283Z,8.57
2023-03-21T22:59:26.965Z,11.17
2023-03-21T23:01:56.684Z,9.83
2023-03-21T23:04:25.086Z,50.37
2023-03-21T23:06:53.264Z,10.27
2023-03-21T23:09:21.617Z,14.03
2023-03-21T23:11:50.031Z,10.10
2023-03-21T23:14:19.485Z,10.93
2023-03-21T23:16:47.466Z,7.87
2023-03-21T23:19:17.448Z,8.13
2023-03-21T23:21:46.289Z,9.23
2023-03-21T23:24:16.018Z,8.80
2023-03-21T23:26:44.160Z,11.03
2023-03-21T23:29:12.962Z,8.03
2023-03-21T23:31:40.963Z,14.07
2023-03-21T23:34:09.053Z,10.07
2023-03-21T23:36:38.347Z,11.43
2023-03-21T23:39:06.607Z,8.37
2023-03-21T23:41:34.533Z,7.53
2023-03-21T23:44:02.718Z,7.80
2023-03-21T23:46:31.258Z,11.80
2023-03-21T23:48:59.342Z,7.87
2023-03-21T23:51:27.285Z,5.97
2023-03-21T23:53:57.202Z,10.20
2023-03-21T23:56:27.389Z,9.30
2023-03-21T23:58:55.398Z,7.70
